sensor_id;sensor_type;location;lat;lon;timestamp;P1;durP1;ratioP1;P2;durP2;ratioP2
73650;SDS011;61944;52.538;6.108;2023-05-02T00:00:46;21.42;;;9.70;;
73650;SDS011;61944;52.538;6.108;2023-05-02T00:03:11;23.20;;;11.00;;
73650;SDS011;61944;52.538;6.108;2023-05-02T00:05:37;16.95;;;8.73;;
73650;SDS011;61944;52.538;6.108;2023-05-02T00:08:03;16.25;;;8.82;;
73650;SDS011;61944;52.538;6.108;2023-05-02T00:10:28;19.17;;;9.30;;
73650;SDS011;61944;52.538;6.108;2023-05-02T00:12:54;16.90;;;8.30;;
73650;SDS011;61944;52.538;6.108;2023-05-02T00:15:20;23.20;;;9.30;;
73650;SDS011;61944;52.538;6.108;2023-05-02T00:17:45;22.67;;;9.98;;
73650;SDS011;61944;52.538;6.108;2023-05-02T00:20:11;17.67;;;7.85;;
73650;SDS011;61944;52.538;6.108;2023-05-02T00:22:37;21.30;;;7.85;;
73650;SDS011;61944;52.538;6.108;2023-05-02T00:25:03;14.90;;;8.48;;
73650;SDS011;61944;52.538;6.108;2023-05-02T00:27:29;17.58;;;7.07;;
73650;SDS011;61944;52.538;6.108;2023-05-02T00:29:55;15.32;;;7.40;;
73650;SDS011;61944;52.538;6.108;2023-05-02T00:32:22;14.18;;;6.15;;
73650;SDS011;61944;52.538;6.108;2023-05-02T00:34:47;12.13;;;6.50;;
73650;SDS011;61944;52.538;6.108;2023-05-02T00:37:13;13.50;;;6.55;;
73650;SDS011;61944;52.538;6.108;2023-05-02T00:39:38;15.25;;;6.00;;
73650;SDS011;61944;52.538;6.108;2023-05-02T00:42:03;12.65;;;5.53;;
73650;SDS011;61944;52.538;6.108;2023-05-02T00:44:29;12.48;;;5.35;;
73650;SDS011;61944;52.538;6.108;2023-05-02T00:46:55;21.25;;;5.28;;
73650;SDS011;61944;52.538;6.108;2023-05-02T00:49:25;10.80;;;4.65;;
73650;SDS011;61944;52.538;6.108;2023-05-02T00:51:52;12.50;;;5.28;;
73650;SDS011;61944;52.538;6.108;2023-05-02T00:54:17;12.63;;;4.68;;
73650;SDS011;61944;52.538;6.108;2023-05-02T00:56:43;13.32;;;4.97;;
73650;SDS011;61944;52.538;6.108;2023-05-02T00:59:08;11.20;;;4.82;;
73650;SDS011;61944;52.538;6.108;2023-05-02T01:04:53;15.00;;;4.50;;
73650;SDS011;61944;52.538;6.108;2023-05-02T01:07:58;15.63;;;4.25;;
73650;SDS011;61944;52.538;6.108;2023-05-02T01:10:47;8.60;;;3.70;;
73650;SDS011;61944;52.538;6.108;2023-05-02T01:13:20;12.40;;;4.22;;
73650;SDS011;61944;52.538;6.108;2023-05-02T01:15:49;9.07;;;4.47;;
73650;SDS011;61944;52.538;6.108;2023-05-02T01:18:15;7.80;;;3.88;;
73650;SDS011;61944;52.538;6.108;2023-05-02T01:20:45;13.18;;;3.83;;
73650;SDS011;61944;52.538;6.108;2023-05-02T01:23:16;7.28;;;3.30;;
73650;SDS011;61944;52.538;6.108;2023-05-02T01:31:01;8.40;;;4.18;;
73650;SDS011;61944;52.538;6.108;2023-05-02T01:33:28;9.68;;;4.18;;
73650;SDS011;61944;52.538;6.108;2023-05-02T01:35:55;9.77;;;4.30;;
73650;SDS011;61944;52.538;6.108;2023-05-02T01:38:21;8.05;;;4.35;;
73650;SDS011;61944;52.538;6.108;2023-05-02T01:40:49;10.80;;;3.85;;
73650;SDS011;61944;52.538;6.108;2023-05-02T01:43:16;8.65;;;3.67;;
73650;SDS011;61944;52.538;6.108;2023-05-02T01:45:44;6.47;;;3.30;;
73650;SDS011;61944;52.538;6.108;2023-05-02T01:48:12;9.02;;;3.45;;
73650;SDS011;61944;52.538;6.108;2023-05-02T01:50:40;11.20;;;3.30;;
73650;SDS011;61944;52.538;6.108;2023-05-02T01:53:08;5.25;;;2.97;;
73650;SDS011;61944;52.538;6.108;2023-05-02T01:55:37;5.35;;;2.50;;
73650;SDS011;61944;52.538;6.108;2023-05-02T01:58:05;7.22;;;3.28;;
73650;SDS011;61944;52.538;6.108;2023-05-02T02:00:31;9.30;;;3.58;;
73650;SDS011;61944;52.538;6.108;2023-05-02T02:02:58;5.90;;;3.00;;
73650;SDS011;61944;52.538;6.108;2023-05-02T02:05:24;7.03;;;3.33;;
73650;SDS011;61944;52.538;6.108;2023-05-02T02:07:52;4.93;;;3.30;;
73650;SDS011;61944;52.538;6.108;2023-05-02T02:10:17;7.35;;;3.20;;
73650;SDS011;61944;52.538;6.108;2023-05-02T02:12:51;6.07;;;3.47;;
73650;SDS011;61944;52.538;6.108;2023-05-02T02:15:26;5.68;;;3.00;;
73650;SDS011;61944;52.538;6.108;2023-05-02T02:17:58;7.72;;;3.25;;
73650;SDS011;61944;52.538;6.108;2023-05-02T02:20:25;5.00;;;2.50;;
73650;SDS011;61944;52.538;6.108;2023-05-02T02:22:53;5.28;;;3.22;;
73650;SDS011;61944;52.538;6.108;2023-05-02T02:25:21;7.28;;;3.22;;
73650;SDS011;61944;52.538;6.108;2023-05-02T02:27:47;4.53;;;2.92;;
73650;SDS011;61944;52.538;6.108;2023-05-02T02:30:13;5.63;;;3.17;;
73650;SDS011;61944;52.538;6.108;2023-05-02T02:32:40;7.72;;;2.65;;
73650;SDS011;61944;52.538;6.108;2023-05-02T02:35:06;4.80;;;2.85;;
73650;SDS011;61944;52.538;6.108;2023-05-02T02:37:32;6.75;;;3.75;;
73650;SDS011;61944;52.538;6.108;2023-05-02T02:40:14;4.95;;;3.72;;
73650;SDS011;61944;52.538;6.108;2023-05-02T02:42:48;5.55;;;3.00;;
73650;SDS011;61944;52.538;6.108;2023-05-02T02:45:32;4.35;;;2.78;;
73650;SDS011;61944;52.538;6.108;2023-05-02T02:51:10;3.97;;;2.50;;
73650;SDS011;61944;52.538;6.108;2023-05-02T02:53:51;8.30;;;4.63;;
73650;SDS011;61944;52.538;6.108;2023-05-02T02:56:27;7.22;;;3.35;;
73650;SDS011;61944;52.538;6.108;2023-05-02T02:59:03;8.25;;;3.72;;
73650;SDS011;61944;52.538;6.108;2023-05-02T03:01:31;7.82;;;2.83;;
73650;SDS011;61944;52.538;6.108;2023-05-02T03:04:00;12.38;;;3.45;;
73650;SDS011;61944;52.538;6.108;2023-05-02T03:06:29;7.68;;;3.35;;
73650;SDS011;61944;52.538;6.108;2023-05-02T03:08:55;11.60;;;3.28;;
73650;SDS011;61944;52.538;6.108;2023-05-02T03:11:21;15.25;;;3.50;;
73650;SDS011;61944;52.538;6.108;2023-05-02T03:13:46;12.63;;;3.55;;
73650;SDS011;61944;52.538;6.108;2023-05-02T03:16:26;13.48;;;4.82;;
73650;SDS011;61944;52.538;6.108;2023-05-02T03:18:56;9.23;;;3.80;;
73650;SDS011;61944;52.538;6.108;2023-05-02T03:21:22;8.40;;;4.35;;
73650;SDS011;61944;52.538;6.108;2023-05-02T03:23:47;13.25;;;3.88;;
73650;SDS011;61944;52.538;6.108;2023-05-02T03:26:13;8.23;;;3.45;;
73650;SDS011;61944;52.538;6.108;2023-05-02T03:28:38;8.93;;;3.65;;
73650;SDS011;61944;52.538;6.108;2023-05-02T03:31:03;7.93;;;3.67;;
73650;SDS011;61944;52.538;6.108;2023-05-02T03:33:29;12.73;;;4.03;;
73650;SDS011;61944;52.538;6.108;2023-05-02T03:35:54;11.70;;;3.42;;
73650;SDS011;61944;52.538;6.108;2023-05-02T03:38:20;7.47;;;4.00;;
73650;SDS011;61944;52.538;6.108;2023-05-02T03:40:45;15.00;;;4.15;;
73650;SDS011;61944;52.538;6.108;2023-05-02T03:43:11;13.55;;;3.97;;
73650;SDS011;61944;52.538;6.108;2023-05-02T03:45:36;13.20;;;3.72;;
73650;SDS011;61944;52.538;6.108;2023-05-02T03:48:01;9.52;;;3.58;;
73650;SDS011;61944;52.538;6.108;2023-05-02T03:50:27;14.85;;;4.03;;
73650;SDS011;61944;52.538;6.108;2023-05-02T03:52:52;15.00;;;3.60;;
73650;SDS011;61944;52.538;6.108;2023-05-02T03:55:18;15.05;;;4.55;;
73650;SDS011;61944;52.538;6.108;2023-05-02T03:57:43;11.73;;;4.13;;
73650;SDS011;61944;52.538;6.108;2023-05-02T04:00:09;15.57;;;4.28;;
73650;SDS011;61944;52.538;6.108;2023-05-02T04:02:35;11.43;;;3.80;;
73650;SDS011;61944;52.538;6.108;2023-05-02T04:05:00;12.57;;;3.67;;
73650;SDS011;61944;52.538;6.108;2023-05-02T04:07:26;17.25;;;3.65;;
73650;SDS011;61944;52.538;6.108;2023-05-02T04:09:51;9.90;;;4.03;;
73650;SDS011;61944;52.538;6.108;2023-05-02T04:12:16;15.95;;;4.80;;
73650;SDS011;61944;52.538;6.108;2023-05-02T04:14:42;7.65;;;4.13;;
73650;SDS011;61944;52.538;6.108;2023-05-02T04:17:07;11.82;;;4.43;;
73650;SDS011;61944;52.538;6.108;2023-05-02T04:19:33;11.98;;;3.97;;
73650;SDS011;61944;52.538;6.108;2023-05-02T04:21:59;12.85;;;4.72;;
73650;SDS011;61944;52.538;6.108;2023-05-02T04:24:24;17.42;;;4.03;;
73650;SDS011;61944;52.538;6.108;2023-05-02T04:26:49;13.80;;;3.72;;
73650;SDS011;61944;52.538;6.108;2023-05-02T04:29:15;11.50;;;4.68;;
73650;SDS011;61944;52.538;6.108;2023-05-02T04:31:40;15.77;;;4.25;;
73650;SDS011;61944;52.538;6.108;2023-05-02T04:34:06;22.65;;;4.50;;
73650;SDS011;61944;52.538;6.108;2023-05-02T04:36:31;11.10;;;4.15;;
73650;SDS011;61944;52.538;6.108;2023-05-02T04:38:58;7.10;;;3.55;;
73650;SDS011;61944;52.538;6.108;2023-05-02T04:41:23;10.20;;;3.50;;
73650;SDS011;61944;52.538;6.108;2023-05-02T04:43:49;17.17;;;3.28;;
73650;SDS011;61944;52.538;6.108;2023-05-02T04:46:15;19.20;;;4.03;;
73650;SDS011;61944;52.538;6.108;2023-05-02T04:48:42;9.43;;;3.70;;
73650;SDS011;61944;52.538;6.108;2023-05-02T04:51:08;8.25;;;3.42;;
73650;SDS011;61944;52.538;6.108;2023-05-02T04:53:34;10.10;;;3.13;;
73650;SDS011;61944;52.538;6.108;2023-05-02T04:55:59;18.67;;;6.18;;
73650;SDS011;61944;52.538;6.108;2023-05-02T04:58:25;13.73;;;3.60;;
73650;SDS011;61944;52.538;6.108;2023-05-02T05:00:50;11.32;;;4.07;;
73650;SDS011;61944;52.538;6.108;2023-05-02T05:03:16;12.95;;;3.75;;
73650;SDS011;61944;52.538;6.108;2023-05-02T05:05:41;17.95;;;4.65;;
73650;SDS011;61944;52.538;6.108;2023-05-02T05:08:07;11.70;;;3.75;;
73650;SDS011;61944;52.538;6.108;2023-05-02T05:10:32;7.50;;;3.70;;
73650;SDS011;61944;52.538;6.108;2023-05-02T05:12:57;12.20;;;3.10;;
73650;SDS011;61944;52.538;6.108;2023-05-02T05:15:23;5.38;;;2.50;;
73650;SDS011;61944;52.538;6.108;2023-05-02T05:17:50;6.38;;;3.22;;
73650;SDS011;61944;52.538;6.108;2023-05-02T05:20:15;17.23;;;4.82;;
73650;SDS011;61944;52.538;6.108;2023-05-02T05:22:41;12.25;;;3.08;;
73650;SDS011;61944;52.538;6.108;2023-05-02T05:25:10;10.82;;;3.55;;
73650;SDS011;61944;52.538;6.108;2023-05-02T05:27:35;6.07;;;2.15;;
73650;SDS011;61944;52.538;6.108;2023-05-02T05:30:02;7.00;;;2.42;;
73650;SDS011;61944;52.538;6.108;2023-05-02T05:32:31;8.45;;;2.58;;
73650;SDS011;61944;52.538;6.108;2023-05-02T05:34:57;11.77;;;2.70;;
73650;SDS011;61944;52.538;6.108;2023-05-02T05:37:23;6.90;;;3.47;;
73650;SDS011;61944;52.538;6.108;2023-05-02T05:39:48;11.63;;;3.10;;
73650;SDS011;61944;52.538;6.108;2023-05-02T05:42:13;7.95;;;2.65;;
73650;SDS011;61944;52.538;6.108;2023-05-02T05:44:39;6.13;;;1.90;;
73650;SDS011;61944;52.538;6.108;2023-05-02T05:47:05;6.00;;;2.10;;
73650;SDS011;61944;52.538;6.108;2023-05-02T05:49:30;10.98;;;3.17;;
73650;SDS011;61944;52.538;6.108;2023-05-02T05:51:56;5.35;;;2.70;;
73650;SDS011;61944;52.538;6.108;2023-05-02T05:54:22;12.07;;;3.03;;
73650;SDS011;61944;52.538;6.108;2023-05-02T05:56:47;7.68;;;2.53;;
73650;SDS011;61944;52.538;6.108;2023-05-02T05:59:13;10.65;;;2.15;;
73650;SDS011;61944;52.538;6.108;2023-05-02T06:01:38;6.68;;;2.28;;
73650;SDS011;61944;52.538;6.108;2023-05-02T06:04:04;10.10;;;3.38;;
73650;SDS011;61944;52.538;6.108;2023-05-02T06:06:31;5.68;;;2.03;;
73650;SDS011;61944;52.538;6.108;2023-05-02T06:08:57;9.32;;;2.38;;
73650;SDS011;61944;52.538;6.108;2023-05-02T06:11:22;7.25;;;1.98;;
73650;SDS011;61944;52.538;6.108;2023-05-02T06:13:51;10.70;;;2.30;;
73650;SDS011;61944;52.538;6.108;2023-05-02T06:16:17;6.28;;;2.35;;
73650;SDS011;61944;52.538;6.108;2023-05-02T06:18:44;5.22;;;2.17;;
73650;SDS011;61944;52.538;6.108;2023-05-02T06:21:10;6.13;;;1.83;;
73650;SDS011;61944;52.538;6.108;2023-05-02T06:23:35;6.78;;;1.80;;
73650;SDS011;61944;52.538;6.108;2023-05-02T06:26:01;6.43;;;1.77;;
73650;SDS011;61944;52.538;6.108;2023-05-02T06:28:28;8.23;;;2.10;;
73650;SDS011;61944;52.538;6.108;2023-05-02T06:31:01;7.22;;;2.10;;
73650;SDS011;61944;52.538;6.108;2023-05-02T06:33:30;7.95;;;2.58;;
73650;SDS011;61944;52.538;6.108;2023-05-02T06:35:57;6.15;;;2.25;;
73650;SDS011;61944;52.538;6.108;2023-05-02T06:38:23;5.53;;;2.13;;
73650;SDS011;61944;52.538;6.108;2023-05-02T06:40:49;7.65;;;2.55;;
73650;SDS011;61944;52.538;6.108;2023-05-02T06:43:15;7.85;;;2.17;;
73650;SDS011;61944;52.538;6.108;2023-05-02T06:45:41;4.80;;;2.50;;
73650;SDS011;61944;52.538;6.108;2023-05-02T06:48:07;7.63;;;2.03;;
73650;SDS011;61944;52.538;6.108;2023-05-02T06:50:32;5.55;;;1.88;;
73650;SDS011;61944;52.538;6.108;2023-05-02T06:52:58;6.95;;;2.83;;
73650;SDS011;61944;52.538;6.108;2023-05-02T06:55:24;7.15;;;1.83;;
73650;SDS011;61944;52.538;6.108;2023-05-02T06:57:50;9.15;;;2.28;;
73650;SDS011;61944;52.538;6.108;2023-05-02T07:00:16;10.13;;;2.97;;
73650;SDS011;61944;52.538;6.108;2023-05-02T07:02:42;6.43;;;2.22;;
73650;SDS011;61944;52.538;6.108;2023-05-02T07:05:08;5.65;;;2.22;;
73650;SDS011;61944;52.538;6.108;2023-05-02T07:07:34;10.23;;;2.50;;
73650;SDS011;61944;52.538;6.108;2023-05-02T07:09:59;4.68;;;1.75;;
73650;SDS011;61944;52.538;6.108;2023-05-02T07:12:25;5.00;;;2.00;;
73650;SDS011;61944;52.538;6.108;2023-05-02T07:14:50;9.20;;;2.53;;
73650;SDS011;61944;52.538;6.108;2023-05-02T07:17:16;4.78;;;1.80;;
73650;SDS011;61944;52.538;6.108;2023-05-02T07:19:41;3.97;;;1.80;;
73650;SDS011;61944;52.538;6.108;2023-05-02T07:22:07;8.13;;;2.17;;
73650;SDS011;61944;52.538;6.108;2023-05-02T07:24:32;5.15;;;1.88;;
73650;SDS011;61944;52.538;6.108;2023-05-02T07:26:58;4.30;;;1.88;;
73650;SDS011;61944;52.538;6.108;2023-05-02T07:29:23;10.60;;;1.92;;
73650;SDS011;61944;52.538;6.108;2023-05-02T07:31:49;6.57;;;2.10;;
73650;SDS011;61944;52.538;6.108;2023-05-02T07:34:14;6.43;;;2.22;;
73650;SDS011;61944;52.538;6.108;2023-05-02T07:36:40;7.30;;;2.35;;
73650;SDS011;61944;52.538;6.108;2023-05-02T07:39:05;4.85;;;2.28;;
73650;SDS011;61944;52.538;6.108;2023-05-02T07:41:31;12.75;;;2.97;;
73650;SDS011;61944;52.538;6.108;2023-05-02T07:43:56;6.18;;;2.08;;
73650;SDS011;61944;52.538;6.108;2023-05-02T07:46:22;5.63;;;2.88;;
73650;SDS011;61944;52.538;6.108;2023-05-02T07:48:48;6.10;;;2.75;;
73650;SDS011;61944;52.538;6.108;2023-05-02T07:51:13;10.55;;;2.63;;
73650;SDS011;61944;52.538;6.108;2023-05-02T07:53:39;4.00;;;2.20;;
73650;SDS011;61944;52.538;6.108;2023-05-02T07:56:04;7.38;;;2.08;;
73650;SDS011;61944;52.538;6.108;2023-05-02T07:58:31;8.10;;;2.35;;
73650;SDS011;61944;52.538;6.108;2023-05-02T08:00:56;8.38;;;2.45;;
73650;SDS011;61944;52.538;6.108;2023-05-02T08:03:22;8.40;;;2.80;;
73650;SDS011;61944;52.538;6.108;2023-05-02T08:05:48;9.35;;;2.33;;
73650;SDS011;61944;52.538;6.108;2023-05-02T08:08:13;5.40;;;2.53;;
73650;SDS011;61944;52.538;6.108;2023-05-02T08:10:38;5.50;;;2.33;;
73650;SDS011;61944;52.538;6.108;2023-05-02T08:13:04;5.75;;;2.75;;
73650;SDS011;61944;52.538;6.108;2023-05-02T08:15:30;4.78;;;2.50;;
73650;SDS011;61944;52.538;6.108;2023-05-02T08:17:55;5.43;;;3.13;;
73650;SDS011;61944;52.538;6.108;2023-05-02T08:20:21;4.05;;;2.50;;
73650;SDS011;61944;52.538;6.108;2023-05-02T08:22:46;7.97;;;3.10;;
73650;SDS011;61944;52.538;6.108;2023-05-02T08:25:12;6.80;;;2.30;;
73650;SDS011;61944;52.538;6.108;2023-05-02T08:27:37;5.93;;;2.47;;
73650;SDS011;61944;52.538;6.108;2023-05-02T08:30:03;6.57;;;2.63;;
73650;SDS011;61944;52.538;6.108;2023-05-02T08:32:28;7.85;;;2.78;;
73650;SDS011;61944;52.538;6.108;2023-05-02T08:34:55;5.47;;;2.80;;
73650;SDS011;61944;52.538;6.108;2023-05-02T08:37:21;8.73;;;2.83;;
73650;SDS011;61944;52.538;6.108;2023-05-02T08:39:47;7.50;;;3.30;;
73650;SDS011;61944;52.538;6.108;2023-05-02T08:42:12;7.63;;;2.63;;
73650;SDS011;61944;52.538;6.108;2023-05-02T08:44:37;5.70;;;2.80;;
73650;SDS011;61944;52.538;6.108;2023-05-02T08:47:03;8.48;;;4.15;;
73650;SDS011;61944;52.538;6.108;2023-05-02T08:49:30;9.10;;;2.67;;
73650;SDS011;61944;52.538;6.108;2023-05-02T08:51:58;7.28;;;3.00;;
73650;SDS011;61944;52.538;6.108;2023-05-02T08:54:24;10.02;;;3.53;;
73650;SDS011;61944;52.538;6.108;2023-05-02T08:56:52;6.63;;;2.90;;
73650;SDS011;61944;52.538;6.108;2023-05-02T08:59:18;10.25;;;2.90;;
73650;SDS011;61944;52.538;6.108;2023-05-02T09:01:44;7.13;;;2.88;;
73650;SDS011;61944;52.538;6.108;2023-05-02T09:04:13;6.07;;;3.10;;
73650;SDS011;61944;52.538;6.108;2023-05-02T09:06:39;8.13;;;2.40;;
73650;SDS011;61944;52.538;6.108;2023-05-02T09:09:04;8.43;;;3.15;;
73650;SDS011;61944;52.538;6.108;2023-05-02T09:11:29;5.03;;;2.47;;
73650;SDS011;61944;52.538;6.108;2023-05-02T09:13:55;11.55;;;3.55;;
73650;SDS011;61944;52.538;6.108;2023-05-02T09:16:23;5.00;;;2.75;;
73650;SDS011;61944;52.538;6.108;2023-05-02T09:18:52;6.32;;;2.47;;
73650;SDS011;61944;52.538;6.108;2023-05-02T09:21:20;7.05;;;2.80;;
73650;SDS011;61944;52.538;6.108;2023-05-02T09:23:51;8.27;;;2.55;;
73650;SDS011;61944;52.538;6.108;2023-05-02T09:26:36;6.68;;;2.30;;
73650;SDS011;61944;52.538;6.108;2023-05-02T09:29:03;6.22;;;2.55;;
73650;SDS011;61944;52.538;6.108;2023-05-02T09:31:30;7.22;;;2.70;;
73650;SDS011;61944;52.538;6.108;2023-05-02T09:34:08;5.72;;;2.97;;
73650;SDS011;61944;52.538;6.108;2023-05-02T09:36:38;9.82;;;3.28;;
73650;SDS011;61944;52.538;6.108;2023-05-02T09:39:09;6.43;;;2.42;;
73650;SDS011;61944;52.538;6.108;2023-05-02T09:41:40;8.75;;;2.40;;
73650;SDS011;61944;52.538;6.108;2023-05-02T09:44:10;5.22;;;2.38;;
73650;SDS011;61944;52.538;6.108;2023-05-02T09:46:40;7.45;;;2.58;;
73650;SDS011;61944;52.538;6.108;2023-05-02T09:49:06;4.97;;;2.72;;
73650;SDS011;61944;52.538;6.108;2023-05-02T09:51:35;6.78;;;2.95;;
73650;SDS011;61944;52.538;6.108;2023-05-02T09:54:00;4.38;;;2.80;;
73650;SDS011;61944;52.538;6.108;2023-05-02T09:56:26;8.70;;;2.90;;
73650;SDS011;61944;52.538;6.108;2023-05-02T09:58:56;7.68;;;3.22;;
73650;SDS011;61944;52.538;6.108;2023-05-02T10:01:37;9.00;;;2.83;;
73650;SDS011;61944;52.538;6.108;2023-05-02T10:04:05;3.88;;;2.17;;
73650;SDS011;61944;52.538;6.108;2023-05-02T10:06:40;5.65;;;2.75;;
73650;SDS011;61944;52.538;6.108;2023-05-02T10:09:09;8.68;;;2.53;;
73650;SDS011;61944;52.538;6.108;2023-05-02T10:11:45;5.15;;;2.30;;
73650;SDS011;61944;52.538;6.108;2023-05-02T10:14:14;6.93;;;3.35;;
73650;SDS011;61944;52.538;6.108;2023-05-02T10:16:54;6.85;;;2.58;;
73650;SDS011;61944;52.538;6.108;2023-05-02T10:19:35;8.10;;;3.08;;
73650;SDS011;61944;52.538;6.108;2023-05-02T10:22:06;9.30;;;3.25;;
73650;SDS011;61944;52.538;6.108;2023-05-02T10:24:32;9.07;;;3.08;;
73650;SDS011;61944;52.538;6.108;2023-05-02T10:26:58;8.63;;;3.08;;
73650;SDS011;61944;52.538;6.108;2023-05-02T10:29:29;4.10;;;3.00;;
73650;SDS011;61944;52.538;6.108;2023-05-02T10:31:56;8.45;;;3.70;;
73650;SDS011;61944;52.538;6.108;2023-05-02T10:34:22;9.70;;;3.65;;
73650;SDS011;61944;52.538;6.108;2023-05-02T10:36:48;10.13;;;3.15;;
73650;SDS011;61944;52.538;6.108;2023-05-02T10:39:14;11.68;;;3.22;;
73650;SDS011;61944;52.538;6.108;2023-05-02T10:41:40;11.02;;;3.75;;
73650;SDS011;61944;52.538;6.108;2023-05-02T10:44:06;10.15;;;2.97;;
73650;SDS011;61944;52.538;6.108;2023-05-02T10:46:36;5.35;;;2.72;;
73650;SDS011;61944;52.538;6.108;2023-05-02T10:49:06;7.65;;;2.60;;
73650;SDS011;61944;52.538;6.108;2023-05-02T10:51:33;7.88;;;3.03;;
73650;SDS011;61944;52.538;6.108;2023-05-02T10:59:38;11.82;;;3.10;;
73650;SDS011;61944;52.538;6.108;2023-05-02T11:04:58;5.72;;;2.50;;
73650;SDS011;61944;52.538;6.108;2023-05-02T11:07:27;7.97;;;2.25;;
73650;SDS011;61944;52.538;6.108;2023-05-02T11:09:53;9.35;;;3.17;;
73650;SDS011;61944;52.538;6.108;2023-05-02T11:12:51;4.35;;;2.78;;
73650;SDS011;61944;52.538;6.108;2023-05-02T11:18:08;5.15;;;2.63;;
73650;SDS011;61944;52.538;6.108;2023-05-02T11:20:38;10.93;;;2.85;;
73650;SDS011;61944;52.538;6.108;2023-05-02T11:25:49;3.17;;;2.08;;
73650;SDS011;61944;52.538;6.108;2023-05-02T11:31:04;7.25;;;2.60;;
73650;SDS011;61944;52.538;6.108;2023-05-02T11:33:30;7.43;;;2.85;;
73650;SDS011;61944;52.538;6.108;2023-05-02T11:35:56;4.75;;;2.58;;
73650;SDS011;61944;52.538;6.108;2023-05-02T11:38:22;3.72;;;2.13;;
73650;SDS011;61944;52.538;6.108;2023-05-02T11:40:49;8.27;;;3.33;;
73650;SDS011;61944;52.538;6.108;2023-05-02T11:43:17;5.90;;;2.38;;
73650;SDS011;61944;52.538;6.108;2023-05-02T11:45:43;7.57;;;3.33;;
73650;SDS011;61944;52.538;6.108;2023-05-02T11:48:10;5.03;;;2.83;;
73650;SDS011;61944;52.538;6.108;2023-05-02T11:50:56;8.20;;;2.60;;
73650;SDS011;61944;52.538;6.108;2023-05-02T11:53:26;3.97;;;2.28;;
73650;SDS011;61944;52.538;6.108;2023-05-02T11:55:59;6.10;;;2.42;;
73650;SDS011;61944;52.538;6.108;2023-05-02T11:58:27;4.53;;;2.03;;
73650;SDS011;61944;52.538;6.108;2023-05-02T12:00:56;5.03;;;2.10;;
73650;SDS011;61944;52.538;6.108;2023-05-02T12:03:26;5.32;;;2.25;;
73650;SDS011;61944;52.538;6.108;2023-05-02T12:05:57;8.32;;;2.08;;
73650;SDS011;61944;52.538;6.108;2023-05-02T12:08:36;3.67;;;2.13;;
73650;SDS011;61944;52.538;6.108;2023-05-02T12:11:02;3.75;;;1.83;;
73650;SDS011;61944;52.538;6.108;2023-05-02T12:13:28;5.32;;;2.20;;
73650;SDS011;61944;52.538;6.108;2023-05-02T12:15:54;2.40;;;1.92;;
73650;SDS011;61944;52.538;6.108;2023-05-02T12:18:21;7.25;;;2.53;;
73650;SDS011;61944;52.538;6.108;2023-05-02T12:20:48;7.93;;;2.10;;
73650;SDS011;61944;52.538;6.108;2023-05-02T12:23:15;7.65;;;2.75;;
73650;SDS011;61944;52.538;6.108;2023-05-02T12:25:41;5.35;;;2.00;;
73650;SDS011;61944;52.538;6.108;2023-05-02T12:28:07;3.13;;;2.08;;
73650;SDS011;61944;52.538;6.108;2023-05-02T12:30:34;5.15;;;2.05;;
73650;SDS011;61944;52.538;6.108;2023-05-02T12:33:02;6.18;;;2.22;;
73650;SDS011;61944;52.538;6.108;2023-05-02T12:35:30;7.70;;;2.38;;
73650;SDS011;61944;52.538;6.108;2023-05-02T12:38:15;6.43;;;2.05;;
73650;SDS011;61944;52.538;6.108;2023-05-02T12:40:45;3.53;;;2.47;;
73650;SDS011;61944;52.538;6.108;2023-05-02T12:43:12;4.40;;;1.90;;
73650;SDS011;61944;52.538;6.108;2023-05-02T12:45:38;8.20;;;2.40;;
73650;SDS011;61944;52.538;6.108;2023-05-02T12:48:16;5.03;;;2.20;;
73650;SDS011;61944;52.538;6.108;2023-05-02T12:50:50;4.40;;;2.05;;
73650;SDS011;61944;52.538;6.108;2023-05-02T12:53:16;1.98;;;1.70;;
73650;SDS011;61944;52.538;6.108;2023-05-02T12:55:41;5.93;;;2.60;;
73650;SDS011;61944;52.538;6.108;2023-05-02T12:58:08;3.00;;;1.80;;
73650;SDS011;61944;52.538;6.108;2023-05-02T13:00:35;5.07;;;1.80;;
73650;SDS011;61944;52.538;6.108;2023-05-02T13:03:02;7.70;;;2.40;;
73650;SDS011;61944;52.538;6.108;2023-05-02T13:05:27;5.72;;;1.83;;
73650;SDS011;61944;52.538;6.108;2023-05-02T13:07:53;5.60;;;2.17;;
73650;SDS011;61944;52.538;6.108;2023-05-02T13:10:20;6.68;;;1.90;;
73650;SDS011;61944;52.538;6.108;2023-05-02T13:12:46;4.38;;;2.22;;
73650;SDS011;61944;52.538;6.108;2023-05-02T13:15:12;3.28;;;1.88;;
73650;SDS011;61944;52.538;6.108;2023-05-02T13:17:38;5.88;;;2.20;;
73650;SDS011;61944;52.538;6.108;2023-05-02T13:20:04;6.13;;;1.95;;
73650;SDS011;61944;52.538;6.108;2023-05-02T13:22:31;5.68;;;2.10;;
73650;SDS011;61944;52.538;6.108;2023-05-02T13:24:56;5.13;;;2.47;;
73650;SDS011;61944;52.538;6.108;2023-05-02T13:27:22;5.38;;;2.28;;
73650;SDS011;61944;52.538;6.108;2023-05-02T13:29:48;4.57;;;2.03;;
73650;SDS011;61944;52.538;6.108;2023-05-02T13:32:13;7.00;;;1.98;;
73650;SDS011;61944;52.538;6.108;2023-05-02T13:34:39;6.20;;;2.10;;
73650;SDS011;61944;52.538;6.108;2023-05-02T13:37:04;7.22;;;2.10;;
73650;SDS011;61944;52.538;6.108;2023-05-02T13:39:30;5.57;;;2.00;;
73650;SDS011;61944;52.538;6.108;2023-05-02T13:41:55;4.40;;;1.70;;
73650;SDS011;61944;52.538;6.108;2023-05-02T13:44:20;3.58;;;1.60;;
73650;SDS011;61944;52.538;6.108;2023-05-02T13:46:46;5.00;;;2.08;;
73650;SDS011;61944;52.538;6.108;2023-05-02T13:49:12;8.18;;;2.78;;
73650;SDS011;61944;52.538;6.108;2023-05-02T13:51:37;4.05;;;1.83;;
73650;SDS011;61944;52.538;6.108;2023-05-02T13:54:03;3.60;;;1.75;;
73650;SDS011;61944;52.538;6.108;2023-05-02T13:56:28;3.50;;;1.60;;
73650;SDS011;61944;52.538;6.108;2023-05-02T13:58:53;3.47;;;2.15;;
73650;SDS011;61944;52.538;6.108;2023-05-02T14:01:19;4.05;;;2.15;;
73650;SDS011;61944;52.538;6.108;2023-05-02T14:03:44;5.22;;;1.70;;
73650;SDS011;61944;52.538;6.108;2023-05-02T14:06:10;7.90;;;2.15;;
73650;SDS011;61944;52.538;6.108;2023-05-02T14:08:35;3.30;;;1.95;;
73650;SDS011;61944;52.538;6.108;2023-05-02T14:11:00;4.07;;;1.73;;
73650;SDS011;61944;52.538;6.108;2023-05-02T14:13:26;3.80;;;2.83;;
73650;SDS011;61944;52.538;6.108;2023-05-02T14:15:52;6.35;;;1.95;;
73650;SDS011;61944;52.538;6.108;2023-05-02T14:18:18;7.75;;;2.05;;
73650;SDS011;61944;52.538;6.108;2023-05-02T14:20:43;4.15;;;1.60;;
73650;SDS011;61944;52.538;6.108;2023-05-02T14:23:09;3.85;;;2.03;;
73650;SDS011;61944;52.538;6.108;2023-05-02T14:25:34;7.38;;;1.98;;
73650;SDS011;61944;52.538;6.108;2023-05-02T14:28:00;3.90;;;1.50;;
73650;SDS011;61944;52.538;6.108;2023-05-02T14:30:26;3.38;;;2.20;;
73650;SDS011;61944;52.538;6.108;2023-05-02T14:32:52;5.03;;;1.98;;
73650;SDS011;61944;52.538;6.108;2023-05-02T14:35:18;4.80;;;1.75;;
73650;SDS011;61944;52.538;6.108;2023-05-02T14:37:43;3.85;;;1.63;;
73650;SDS011;61944;52.538;6.108;2023-05-02T14:40:09;7.78;;;1.80;;
73650;SDS011;61944;52.538;6.108;2023-05-02T14:42:36;7.47;;;2.20;;
73650;SDS011;61944;52.538;6.108;2023-05-02T14:45:01;5.53;;;1.88;;
73650;SDS011;61944;52.538;6.108;2023-05-02T14:47:27;3.90;;;1.92;;
73650;SDS011;61944;52.538;6.108;2023-05-02T14:49:55;4.65;;;1.80;;
73650;SDS011;61944;52.538;6.108;2023-05-02T14:52:20;5.00;;;1.95;;
73650;SDS011;61944;52.538;6.108;2023-05-02T14:54:46;2.95;;;1.70;;
73650;SDS011;61944;52.538;6.108;2023-05-02T14:57:11;5.15;;;1.40;;
73650;SDS011;61944;52.538;6.108;2023-05-02T14:59:36;2.75;;;1.88;;
73650;SDS011;61944;52.538;6.108;2023-05-02T15:02:02;7.40;;;2.03;;
73650;SDS011;61944;52.538;6.108;2023-05-02T15:04:31;4.82;;;1.98;;
73650;SDS011;61944;52.538;6.108;2023-05-02T15:06:56;3.95;;;2.25;;
73650;SDS011;61944;52.538;6.108;2023-05-02T15:09:22;5.65;;;1.60;;
73650;SDS011;61944;52.538;6.108;2023-05-02T15:11:52;3.85;;;1.95;;